createdAt,value
2017-08-09T00:00:41.966Z,79.90
2017-08-09T00:03:09.409Z,80.20
2017-08-09T00:05:36.889Z,79.80
2017-08-09T00:08:05.098Z,79.80
2017-08-09T00:10:32.537Z,79.70
2017-08-09T00:12:59.979Z,80.30
2017-08-09T00:15:27.432Z,80.10
2017-08-09T00:17:54.876Z,81.10
2017-08-09T00:20:22.323Z,80.60
2017-08-09T00:22:49.755Z,81.60
2017-08-09T00:25:17.202Z,80.90
2017-08-09T00:27:44.624Z,82.80
2017-08-09T00:30:12.085Z,82.00
2017-08-09T00:32:39.511Z,82.20
2017-08-09T00:35:06.997Z,83.10
2017-08-09T00:37:34.443Z,83.50
2017-08-09T00:40:01.895Z,83.20
2017-08-09T00:42:30.151Z,83.30
2017-08-09T00:44:57.689Z,83.30
2017-08-09T00:47:25.143Z,84.10
2017-08-09T00:49:52.569Z,83.40
2017-08-09T00:52:20.080Z,82.80
2017-08-09T00:54:47.539Z,82.70
2017-08-09T00:57:14.971Z,83.50
2017-08-09T00:59:42.452Z,85.10
2017-08-09T01:02:09.893Z,85.10
2017-08-09T01:04:37.330Z,85.00
2017-08-09T01:07:04.773Z,84.60
2017-08-09T01:09:32.221Z,84.70
2017-08-09T01:11:59.688Z,84.40
2017-08-09T01:14:27.877Z,83.40
2017-08-09T01:16:55.378Z,83.40
2017-08-09T01:19:22.825Z,84.20
2017-08-09T01:21:51.061Z,82.70
2017-08-09T01:24:18.504Z,82.50
2017-08-09T01:26:45.940Z,82.70
2017-08-09T01:29:13.380Z,82.00
2017-08-09T01:31:40.824Z,82.00
2017-08-09T01:34:08.278Z,81.90
2017-08-09T01:36:35.732Z,81.10
2017-08-09T01:39:03.170Z,80.90
2017-08-09T01:41:30.600Z,80.20
2017-08-09T01:43:58.054Z,81.50
2017-08-09T01:46:25.504Z,80.00
2017-08-09T01:48:53.721Z,83.20
2017-08-09T01:51:21.197Z,83.20
2017-08-09T01:53:48.632Z,83.50
2017-08-09T01:56:16.089Z,85.60
2017-08-09T01:58:43.621Z,85.70
2017-08-09T02:01:11.119Z,86.90
2017-08-09T02:03:38.608Z,86.90
2017-08-09T02:06:06.064Z,84.80
2017-08-09T02:08:34.269Z,83.60
2017-08-09T02:11:01.737Z,83.50
2017-08-09T02:13:29.175Z,85.50
2017-08-09T02:15:56.648Z,83.10
2017-08-09T02:18:24.108Z,83.50
2017-08-09T02:20:52.313Z,83.00
2017-08-09T02:23:19.805Z,83.00
2017-08-09T02:25:48.061Z,82.40
2017-08-09T02:28:16.327Z,83.30
2017-08-09T02:30:43.782Z,83.70
2017-08-09T02:33:11.233Z,83.70
2017-08-09T02:35:38.696Z,83.10
2017-08-09T02:38:06.149Z,83.70
2017-08-09T02:40:33.645Z,82.80
2017-08-09T02:43:01.921Z,83.90
2017-08-09T02:45:29.365Z,83.70
2017-08-09T02:47:57.615Z,83.60
2017-08-09T02:50:25.825Z,82.80
2017-08-09T02:52:53.287Z,82.80
2017-08-09T02:55:20.720Z,82.40
2017-08-09T02:57:48.181Z,83.80
2017-08-09T03:00:15.841Z,83.40
2017-08-09T03:02:44.048Z,82.80
2017-08-09T03:05:11.485Z,82.60
2017-08-09T03:07:38.973Z,84.10
2017-08-09T03:10:06.522Z,83.70
2017-08-09T03:12:33.957Z,83.50
2017-08-09T03:15:01.400Z,83.80
2017-08-09T03:17:28.957Z,82.60
2017-08-09T03:19:57.214Z,83.60
2017-08-09T03:22:24.774Z,83.50
2017-08-09T03:24:52.985Z,85.50
2017-08-09T03:27:20.453Z,85.20
2017-08-09T03:29:47.902Z,85.70
2017-08-09T03:32:15.361Z,87.20
2017-08-09T03:34:42.809Z,86.70
2017-08-09T03:37:11.049Z,86.70
2017-08-09T03:39:38.633Z,86.60
2017-08-09T03:42:06.089Z,87.50
2017-08-09T03:44:33.572Z,87.00
2017-08-09T03:47:01.003Z,86.20
2017-08-09T03:49:28.465Z,85.80
2017-08-09T03:51:55.922Z,85.50
2017-08-09T03:54:23.505Z,84.70
2017-08-09T03:56:50.961Z,83.80
2017-08-09T03:59:18.455Z,83.30
2017-08-09T04:01:46.707Z,84.40
2017-08-09T04:04:14.239Z,83.70
2017-08-09T04:06:41.713Z,83.60
2017-08-09T04:09:09.958Z,84.40
2017-08-09T04:11:37.400Z,84.50
2017-08-09T04:14:04.951Z,83.00
2017-08-09T04:16:32.422Z,83.80
2017-08-09T04:18:59.904Z,84.10
2017-08-09T04:21:27.352Z,84.30
2017-08-09T04:23:54.805Z,83.70
2017-08-09T04:26:22.285Z,83.70
2017-08-09T04:28:50.519Z,82.90
2017-08-09T04:31:18.037Z,82.90
2017-08-09T04:33:45.475Z,84.50
2017-08-09T04:36:12.949Z,84.30
2017-08-09T04:38:40.392Z,83.80
2017-08-09T04:41:07.934Z,83.90
2017-08-09T04:43:35.399Z,84.00
2017-08-09T04:46:03.590Z,83.80
2017-08-09T04:48:31.040Z,83.80
2017-08-09T04:50:58.498Z,83.10
2017-08-09T04:53:26.056Z,83.60
2017-08-09T04:55:53.622Z,83.20
2017-08-09T04:58:21.088Z,83.50
2017-08-09T05:00:48.545Z,82.80
2017-08-09T05:03:16.052Z,82.10
2017-08-09T05:05:43.617Z,81.40
2017-08-09T05:08:11.101Z,82.50
2017-08-09T05:10:38.568Z,82.20
2017-08-09T05:13:06.016Z,81.60
2017-08-09T05:15:33.456Z,80.50
2017-08-09T05:18:00.916Z,81.10
2017-08-09T05:20:29.117Z,80.30
2017-08-09T05:22:56.611Z,80.30
2017-08-09T05:25:24.062Z,79.60
2017-08-09T05:27:51.502Z,79.70
2017-08-09T05:30:19.716Z,80.60
2017-08-09T05:32:47.168Z,79.70
2017-08-09T05:35:14.614Z,78.10
2017-08-09T05:37:42.070Z,78.30
2017-08-09T05:40:09.525Z,76.90
2017-08-09T05:42:36.993Z,77.70
2017-08-09T05:45:04.508Z,77.70
2017-08-09T05:47:31.949Z,77.10
2017-08-09T05:49:59.395Z,76.90
2017-08-09T05:52:26.828Z,77.40
2017-08-09T05:54:54.377Z,77.50
2017-08-09T05:57:21.824Z,75.00
2017-08-09T05:59:49.344Z,73.50
2017-08-09T06:02:16.808Z,72.20
2017-08-09T06:04:44.243Z,70.80
2017-08-09T06:07:11.732Z,69.50
2017-08-09T06:09:39.981Z,67.00
2017-08-09T06:12:08.223Z,66.80
2017-08-09T06:14:35.680Z,66.70
2017-08-09T06:17:03.886Z,63.30
2017-08-09T06:19:31.396Z,63.30
2017-08-09T06:21:59.598Z,62.80
2017-08-09T06:24:27.054Z,63.40
2017-08-09T06:26:54.630Z,63.10
2017-08-09T06:29:22.855Z,63.80
2017-08-09T06:31:50.280Z,63.80
2017-08-09T06:34:17.721Z,64.60
2017-08-09T06:36:45.495Z,64.50
2017-08-09T06:39:12.954Z,64.20
2017-08-09T06:41:40.492Z,64.70
2017-08-09T06:44:07.937Z,66.00
2017-08-09T06:46:35.491Z,66.50
2017-08-09T06:49:03.760Z,66.70
2017-08-09T06:51:31.213Z,66.60
2017-08-09T06:53:59.405Z,66.70
2017-08-09T06:56:26.925Z,66.60
2017-08-09T06:58:55.132Z,66.20
2017-08-09T07:01:22.572Z,65.40
2017-08-09T07:03:50.015Z,63.50
2017-08-09T07:06:17.468Z,64.20
2017-08-09T07:08:44.933Z,63.00
2017-08-09T07:11:13.921Z,62.90
2017-08-09T07:13:41.375Z,62.90
2017-08-09T07:16:08.859Z,61.90
2017-08-09T07:18:36.328Z,61.50
2017-08-09T07:21:03.769Z,62.40
2017-08-09T07:23:31.217Z,63.10
2017-08-09T07:25:58.768Z,63.70
2017-08-09T07:28:26.401Z,63.70
2017-08-09T07:30:53.836Z,64.20
2017-08-09T07:33:21.286Z,63.50
2017-08-09T07:35:48.732Z,62.90
2017-08-09T07:38:16.183Z,60.30
2017-08-09T07:40:44.446Z,58.70
2017-08-09T07:43:12.664Z,56.10
2017-08-09T07:45:40.132Z,55.60
2017-08-09T07:48:07.568Z,55.70
2017-08-09T07:50:35.076Z,55.20
2017-08-09T07:53:02.860Z,57.00
2017-08-09T07:55:31.137Z,54.20
2017-08-09T07:57:58.590Z,54.30
2017-08-09T08:00:26.950Z,51.40
2017-08-09T08:02:55.168Z,50.20
2017-08-09T08:05:22.617Z,50.80
2017-08-09T08:07:50.060Z,50.60
2017-08-09T08:10:17.524Z,51.00
2017-08-09T08:12:44.981Z,50.80
2017-08-09T08:15:13.220Z,51.50
2017-08-09T08:17:40.663Z,51.50
2017-08-09T08:20:08.135Z,49.10
2017-08-09T08:22:35.577Z,49.40
2017-08-09T08:25:03.025Z,49.70
2017-08-09T08:27:30.541Z,49.00
2017-08-09T08:29:58.927Z,51.20
2017-08-09T08:32:26.550Z,51.00
2017-08-09T08:34:53.983Z,51.60
2017-08-09T08:37:21.413Z,51.90
2017-08-09T08:39:48.866Z,50.60
2017-08-09T08:42:16.381Z,50.80
2017-08-09T08:44:43.854Z,50.20
2017-08-09T08:47:11.350Z,48.40
2017-08-09T08:49:38.818Z,49.60
2017-08-09T08:52:06.249Z,50.40
2017-08-09T08:54:33.726Z,46.80
2017-08-09T08:57:01.153Z,48.90
2017-08-09T08:59:28.685Z,50.40
2017-08-09T09:01:56.129Z,50.40
2017-08-09T09:04:23.582Z,49.80
2017-08-09T09:06:51.043Z,50.90
2017-08-09T09:09:18.501Z,50.80
2017-08-09T09:11:46.710Z,48.90
2017-08-09T09:14:14.173Z,48.40
2017-08-09T09:16:41.686Z,46.80
2017-08-09T09:19:09.147Z,45.80
2017-08-09T09:21:36.573Z,46.40
2017-08-09T09:24:04.112Z,46.90
2017-08-09T09:26:31.573Z,47.50
2017-08-09T09:28:59.008Z,45.60
2017-08-09T09:31:26.516Z,47.80
2017-08-09T09:33:53.952Z,48.10
2017-08-09T09:36:21.516Z,46.10
2017-08-09T09:38:49.045Z,45.70
2017-08-09T09:41:16.513Z,46.70
2017-08-09T09:43:44.709Z,47.70
2017-08-09T09:46:12.207Z,47.70
2017-08-09T09:48:40.418Z,47.50
2017-08-09T09:51:07.873Z,47.50
2017-08-09T09:53:35.305Z,48.80
2017-08-09T09:56:02.753Z,48.20
2017-08-09T09:58:30.233Z,47.90
2017-08-09T10:00:57.673Z,49.60
2017-08-09T10:03:25.212Z,51.30
2017-08-09T10:05:52.665Z,51.40
2017-08-09T10:08:20.141Z,52.10
2017-08-09T10:10:47.579Z,48.70
2017-08-09T10:13:15.076Z,49.30
2017-08-09T10:15:42.514Z,49.30
2017-08-09T10:18:09.963Z,49.10
2017-08-09T10:20:37.406Z,50.00
2017-08-09T10:23:04.972Z,49.30
2017-08-09T10:25:32.392Z,50.80
2017-08-09T10:27:59.940Z,49.70
2017-08-09T10:30:27.387Z,51.10
2017-08-09T10:32:54.833Z,48.70
2017-08-09T10:35:22.285Z,49.30
2017-08-09T10:37:49.838Z,51.40
2017-08-09T10:40:18.037Z,52.80
2017-08-09T10:42:45.500Z,52.70
2017-08-09T10:45:12.944Z,52.90
2017-08-09T10:47:40.404Z,51.80
2017-08-09T10:50:07.873Z,52.30
2017-08-09T10:52:35.320Z,52.20
2017-08-09T10:55:03.542Z,49.50
2017-08-09T10:57:31.007Z,49.30
2017-08-09T10:59:58.610Z,49.50
2017-08-09T11:02:26.195Z,50.40
2017-08-09T11:04:53.728Z,51.90
2017-08-09T11:07:21.174Z,50.30
2017-08-09T11:09:48.644Z,50.80
2017-08-09T11:12:16.177Z,51.70
2017-08-09T11:14:44.398Z,52.80
2017-08-09T11:17:12.662Z,52.50
2017-08-09T11:19:40.093Z,53.10
2017-08-09T11:22:07.574Z,52.20
2017-08-09T11:24:35.008Z,53.10
2017-08-09T11:27:02.450Z,52.30
2017-08-09T11:29:30.002Z,53.20
2017-08-09T11:31:57.460Z,53.20
2017-08-09T11:34:25.000Z,53.30
2017-08-09T11:36:53.212Z,53.30
2017-08-09T11:39:20.672Z,53.20
2017-08-09T11:41:48.108Z,53.10
2017-08-09T11:44:15.562Z,52.70
2017-08-09T11:46:43.002Z,53.60
2017-08-09T11:49:10.462Z,53.50
2017-08-09T11:51:38.072Z,54.40
2017-08-09T11:54:05.555Z,55.20
2017-08-09T11:56:33.099Z,55.50
2017-08-09T11:59:00.712Z,54.30
2017-08-09T12:01:28.136Z,53.80
2017-08-09T12:03:55.610Z,54.30
2017-08-09T12:06:23.034Z,52.70
2017-08-09T12:08:50.509Z,52.70
2017-08-09T12:11:17.952Z,53.50
2017-08-09T12:13:45.384Z,53.90
2017-08-09T12:16:12.850Z,52.30
2017-08-09T12:18:40.280Z,54.00
2017-08-09T12:21:08.543Z,54.40
2017-08-09T12:23:35.979Z,54.90
2017-08-09T12:26:03.472Z,55.50
2017-08-09T12:28:30.909Z,55.30
2017-08-09T12:30:58.400Z,55.70
2017-08-09T12:33:26.583Z,53.40
2017-08-09T12:35:54.030Z,53.30
2017-08-09T12:38:21.473Z,54.30
2017-08-09T12:40:48.953Z,54.40
2017-08-09T12:43:16.420Z,54.30
2017-08-09T12:45:44.045Z,53.90
2017-08-09T12:48:11.488Z,54.00
2017-08-09T12:50:39.036Z,53.60
2017-08-09T12:53:06.484Z,54.30
2017-08-09T12:55:33.929Z,54.50
2017-08-09T12:58:01.456Z,54.50
2017-08-09T13:00:28.895Z,54.60
2017-08-09T13:02:56.352Z,53.70
2017-08-09T13:05:23.791Z,53.50
2017-08-09T13:07:51.231Z,53.90
2017-08-09T13:10:18.685Z,54.80
2017-08-09T13:12:46.140Z,55.40
2017-08-09T13:15:14.349Z,55.00
2017-08-09T13:17:41.811Z,55.00
2017-08-09T13:20:09.245Z,55.90
2017-08-09T13:22:36.785Z,55.90
2017-08-09T13:25:04.243Z,55.60
2017-08-09T13:27:31.808Z,54.90
2017-08-09T13:29:59.259Z,54.10
2017-08-09T13:32:26.726Z,53.70
2017-08-09T13:34:54.258Z,53.30
2017-08-09T13:37:21.765Z,54.10
2017-08-09T13:39:49.956Z,54.10
2017-08-09T13:42:17.405Z,53.20
2017-08-09T13:44:44.837Z,53.60
2017-08-09T13:47:12.331Z,53.20
2017-08-09T13:49:39.778Z,53.60
2017-08-09T13:52:07.224Z,53.60
2017-08-09T13:54:34.681Z,53.60
2017-08-09T13:57:02.877Z,54.10
2017-08-09T13:59:30.380Z,54.00
2017-08-09T14:01:58.639Z,55.00
2017-08-09T14:04:26.072Z,54.30
2017-08-09T14:06:53.579Z,54.30
2017-08-09T14:09:21.062Z,55.60
2017-08-09T14:11:48.504Z,56.00
2017-08-09T14:14:15.956Z,55.70
2017-08-09T14:16:43.392Z,55.80
2017-08-09T14:19:10.900Z,55.90
2017-08-09T14:21:38.333Z,56.00
2017-08-09T14:24:05.801Z,55.70
2017-08-09T14:26:34.046Z,55.90
2017-08-09T14:29:01.504Z,55.80
2017-08-09T14:31:29.773Z,54.80
2017-08-09T14:33:57.300Z,54.80
2017-08-09T14:36:24.721Z,54.30
2017-08-09T14:38:52.177Z,54.40
2017-08-09T14:41:19.632Z,54.10
2017-08-09T14:43:47.845Z,54.60
2017-08-09T14:46:15.388Z,54.60
2017-08-09T14:48:42.820Z,55.20
2017-08-09T14:51:10.270Z,55.70
2017-08-09T14:53:37.708Z,56.20
2017-08-09T14:56:05.192Z,56.20
2017-08-09T14:58:32.655Z,55.60
2017-08-09T15:01:00.856Z,55.40
2017-08-09T15:03:28.347Z,55.40
2017-08-09T15:05:55.877Z,55.80
2017-08-09T15:08:23.301Z,55.40
2017-08-09T15:10:50.839Z,55.50
2017-08-09T15:13:18.307Z,54.70
2017-08-09T15:15:45.757Z,54.90
2017-08-09T15:18:13.961Z,54.60
2017-08-09T15:20:41.417Z,54.60
2017-08-09T15:23:09.742Z,55.20
2017-08-09T15:25:37.214Z,55.60
2017-08-09T15:28:04.628Z,55.20
2017-08-09T15:30:32.069Z,55.10
2017-08-09T15:32:59.521Z,53.90
2017-08-09T15:35:27.026Z,54.60
2017-08-09T15:37:54.485Z,54.70
2017-08-09T15:40:22.692Z,54.60
2017-08-09T15:42:50.146Z,54.60
2017-08-09T15:45:17.580Z,54.50
2017-08-09T15:47:45.141Z,54.40
2017-08-09T15:50:12.619Z,53.30
2017-08-09T15:52:40.879Z,55.00
2017-08-09T15:55:09.073Z,53.70
2017-08-09T15:57:36.534Z,54.10
2017-08-09T16:00:04.823Z,55.50
2017-08-09T16:02:32.272Z,54.70
2017-08-09T16:04:59.717Z,55.90
2017-08-09T16:07:27.164Z,55.40
2017-08-09T16:09:55.366Z,54.20
2017-08-09T16:12:22.804Z,54.10
2017-08-09T16:14:50.269Z,54.30
2017-08-09T16:17:17.705Z,54.40
2017-08-09T16:19:45.171Z,54.10
2017-08-09T16:22:12.618Z,54.40
2017-08-09T16:24:40.053Z,54.80
2017-08-09T16:27:07.492Z,54.30
2017-08-09T16:29:34.937Z,54.10
2017-08-09T16:32:02.488Z,54.20
2017-08-09T16:34:29.921Z,54.80
2017-08-09T16:36:57.374Z,54.60
2017-08-09T16:39:24.806Z,54.80
2017-08-09T16:41:52.249Z,54.60
2017-08-09T16:44:19.705Z,54.60
2017-08-09T16:46:47.142Z,54.10
2017-08-09T16:49:14.585Z,54.20
2017-08-09T16:51:42.024Z,53.90
2017-08-09T16:54:09.480Z,53.50
2017-08-09T16:56:36.907Z,53.10
2017-08-09T16:59:04.358Z,53.30
2017-08-09T17:01:31.803Z,53.60
2017-08-09T17:03:59.258Z,53.50
2017-08-09T17:06:27.456Z,54.10
2017-08-09T17:08:54.901Z,53.50
2017-08-09T17:11:22.385Z,53.80
2017-08-09T17:13:49.940Z,53.40
2017-08-09T17:16:17.368Z,53.30
2017-08-09T17:18:44.927Z,53.00
2017-08-09T17:21:13.171Z,54.10
2017-08-09T17:23:40.621Z,54.10
2017-08-09T17:26:08.885Z,53.90
2017-08-09T17:28:36.421Z,53.90
2017-08-09T17:31:03.892Z,53.80
2017-08-09T17:33:32.085Z,53.90
2017-08-09T17:35:59.525Z,53.80
2017-08-09T17:38:26.971Z,53.80
2017-08-09T17:40:54.428Z,54.00
2017-08-09T17:43:21.899Z,54.00
2017-08-09T17:45:49.340Z,53.80
2017-08-09T17:48:16.902Z,53.90
2017-08-09T17:50:45.101Z,53.90
2017-08-09T17:53:12.533Z,53.90
2017-08-09T17:55:39.967Z,54.10
2017-08-09T17:58:07.482Z,54.30
2017-08-09T18:00:34.912Z,54.30
2017-08-09T18:03:02.359Z,54.30
2017-08-09T18:05:29.794Z,54.60
2017-08-09T18:07:57.229Z,54.60
2017-08-09T18:10:24.672Z,54.70
2017-08-09T18:12:52.143Z,55.00
2017-08-09T18:15:20.413Z,55.30
2017-08-09T18:17:47.920Z,55.20
2017-08-09T18:20:16.164Z,54.90
2017-08-09T18:22:43.616Z,55.00
2017-08-09T18:25:11.065Z,55.30
2017-08-09T18:27:39.312Z,56.20
2017-08-09T18:30:06.753Z,55.50
2017-08-09T18:32:34.235Z,55.40
2017-08-09T18:35:01.660Z,55.80
2017-08-09T18:37:29.854Z,56.20
2017-08-09T18:39:57.302Z,56.20
2017-08-09T18:42:24.799Z,56.20
2017-08-09T18:44:53.014Z,57.30
2017-08-09T18:47:20.497Z,56.60
2017-08-09T18:49:48.060Z,56.60
2017-08-09T18:52:16.383Z,56.50
2017-08-09T18:54:43.825Z,56.50
2017-08-09T18:57:11.301Z,56.70
2017-08-09T18:59:39.565Z,56.70
2017-08-09T19:02:07.025Z,57.00
2017-08-09T19:04:34.470Z,57.20
2017-08-09T19:07:01.927Z,57.20
2017-08-09T19:09:29.358Z,57.40
2017-08-09T19:11:56.852Z,57.70
2017-08-09T19:14:24.355Z,58.10
2017-08-09T19:16:51.797Z,58.40
2017-08-09T19:19:19.246Z,58.10
2017-08-09T19:21:46.682Z,58.10
2017-08-09T19:24:14.125Z,57.90
2017-08-09T19:26:41.576Z,58.00
2017-08-09T19:29:09.009Z,57.80
2017-08-09T19:31:36.609Z,58.10
2017-08-09T19:34:04.526Z,58.10
2017-08-09T19:36:32.057Z,58.20
2017-08-09T19:38:59.602Z,58.30
2017-08-09T19:41:27.207Z,58.20
2017-08-09T19:43:54.802Z,58.30
2017-08-09T19:46:22.383Z,58.00
2017-08-09T19:48:49.860Z,57.90
2017-08-09T19:51:27.309Z,57.90
2017-08-09T19:54:04.738Z,57.70
2017-08-09T19:56:32.288Z,58.00
2017-08-09T19:59:00.493Z,58.00
2017-08-09T20:01:27.972Z,58.50
2017-08-09T20:03:57.476Z,58.30
2017-08-09T20:06:24.980Z,58.30
2017-08-09T20:08:53.188Z,58.70
2017-08-09T20:11:20.635Z,58.70
2017-08-09T20:13:48.089Z,58.70
2017-08-09T20:16:15.517Z,58.50
2017-08-09T20:18:42.968Z,58.50
2017-08-09T20:21:10.428Z,58.70
2017-08-09T20:23:37.868Z,58.80
2017-08-09T20:26:05.333Z,58.80
2017-08-09T20:28:32.834Z,58.70
2017-08-09T20:31:01.076Z,58.80
2017-08-09T20:33:28.543Z,58.80
2017-08-09T20:35:56.791Z,58.40
2017-08-09T20:38:24.349Z,58.40
2017-08-09T20:40:52.596Z,58.50
2017-08-09T20:43:20.028Z,58.40
2017-08-09T20:45:47.577Z,58.40
2017-08-09T20:48:15.017Z,58.20
2017-08-09T20:50:43.256Z,58.50
2017-08-09T20:53:10.682Z,58.40
2017-08-09T20:55:38.169Z,58.40
2017-08-09T20:58:05.726Z,58.70
2017-08-09T21:00:33.928Z,59.00
2017-08-09T21:03:01.380Z,58.80
2017-08-09T21:05:28.813Z,58.90
2017-08-09T21:07:56.289Z,59.00
2017-08-09T21:10:23.712Z,58.90
2017-08-09T21:12:51.202Z,58.80
2017-08-09T21:15:19.393Z,59.10
2017-08-09T21:17:47.299Z,58.90
2017-08-09T21:20:14.749Z,58.70
2017-08-09T21:22:42.189Z,58.90
2017-08-09T21:25:09.825Z,58.80
2017-08-09T21:27:38.031Z,58.80
2017-08-09T21:30:06.604Z,58.80
2017-08-09T21:32:34.046Z,58.80
2017-08-09T21:35:01.485Z,59.00
2017-08-09T21:37:28.983Z,59.20
2017-08-09T21:39:56.508Z,59.30
2017-08-09T21:42:23.956Z,59.60
2017-08-09T21:44:52.169Z,60.00
2017-08-09T21:47:19.611Z,60.00
2017-08-09T21:49:47.046Z,59.60
2017-08-09T21:52:14.503Z,59.40
2017-08-09T21:54:41.954Z,59.50
2017-08-09T21:57:09.383Z,59.50
2017-08-09T21:59:36.822Z,59.50
2017-08-09T22:02:04.276Z,59.60
2017-08-09T22:04:31.725Z,60.00
2017-08-09T22:06:59.178Z,60.40
2017-08-09T22:09:26.620Z,60.40
2017-08-09T22:11:54.115Z,60.50
2017-08-09T22:14:21.572Z,60.80
2017-08-09T22:16:49.117Z,60.50
2017-08-09T22:19:16.561Z,60.60
2017-08-09T22:21:43.996Z,60.60
2017-08-09T22:24:11.476Z,60.70
2017-08-09T22:26:38.925Z,60.80
2017-08-09T22:29:06.484Z,61.00
2017-08-09T22:31:33.930Z,60.70
2017-08-09T22:34:01.440Z,61.00
2017-08-09T22:36:28.932Z,60.50
2017-08-09T22:38:57.139Z,60.90
2017-08-09T22:41:24.594Z,60.90
2017-08-09T22:43:52.094Z,61.20
2017-08-09T22:46:19.552Z,61.50
2017-08-09T22:48:47.773Z,61.90
2017-08-09T22:51:16.434Z,61.90
2017-08-09T22:53:43.871Z,62.60
2017-08-09T22:56:11.319Z,62.90
2017-08-09T22:58:38.824Z,63.60
2017-08-09T23:01:07.075Z,64.40
2017-08-09T23:03:34.495Z,64.30
2017-08-09T23:06:02.724Z,64.80
2017-08-09T23:08:30.169Z,64.30
2017-08-09T23:10:57.625Z,64.80
2017-08-09T23:13:25.112Z,65.30
2017-08-09T23:15:52.597Z,65.40
2017-08-09T23:18:20.033Z,65.50
2017-08-09T23:20:48.273Z,65.40
2017-08-09T23:23:15.734Z,65.30
2017-08-09T23:25:43.187Z,65.40
2017-08-09T23:28:10.644Z,65.60
2017-08-09T23:30:38.132Z,65.60
2017-08-09T23:33:05.592Z,65.40
2017-08-09T23:35:33.061Z,65.40
2017-08-09T23:38:00.508Z,65.80
2017-08-09T23:40:27.963Z,65.50
2017-08-09T23:42:55.395Z,65.20
2017-08-09T23:45:22.849Z,64.90
2017-08-09T23:47:50.397Z,64.50
2017-08-09T23:50:17.832Z,64.10
2017-08-09T23:52:45.285Z,63.40
2017-08-09T23:55:12.732Z,62.50
2017-08-09T23:57:40.173Z,63.20
